Weather at El Caney Airport

Public forecast

Using degrees Celsius for public forecast. Weather courtesy of forecast.io.

Closest aviation weather report (METAR) to El Caney Airport

Closest report is Ignacio Agramonte International Airport, 34.3 nm (63.6 km) E. Retrieved 2021/06/12 15:52 UTC (57 minutes ago):

MUCM 121552Z 07007KT 030V090 9000 SCT020 30/22 Q1015

Closest aviation forecast (TAF) to El Caney Airport

Closest forecast is Ignacio Agramonte International Airport, 34.3 nm (63.6 km) E. Retrieved 2021/06/12 12:03 UTC (5 hours ago):

TAF MUCM 121100Z 1212/1312 VRB03KT 9000 SCT018 TEMPO 1212/1214 3000 BR FEW060 TEMPO 1218/1224 VRB10KT 4000 TSRA SCT018CB BKN020